sensor_id;sensor_type;location;lat;lon;timestamp;temperature;humidity
2839;DHT22;1427;48.510;9.060;2024-03-22T00:01:47;10.20;99.90
2839;DHT22;1427;48.510;9.060;2024-03-22T00:04:14;10.20;99.90
2839;DHT22;1427;48.510;9.060;2024-03-22T00:06:41;10.20;99.90
2839;DHT22;1427;48.510;9.060;2024-03-22T00:09:09;10.10;99.90
2839;DHT22;1427;48.510;9.060;2024-03-22T00:11:36;10.20;99.90
2839;DHT22;1427;48.510;9.060;2024-03-22T00:14:03;10.10;99.90
2839;DHT22;1427;48.510;9.060;2024-03-22T00:16:30;10.00;99.90
2839;DHT22;1427;48.510;9.060;2024-03-22T00:18:56;10.00;99.90
2839;DHT22;1427;48.510;9.060;2024-03-22T00:21:23;10.10;99.90
2839;DHT22;1427;48.510;9.060;2024-03-22T00:23:50;10.10;99.90
2839;DHT22;1427;48.510;9.060;2024-03-22T00:26:19;10.10;99.90
2839;DHT22;1427;48.510;9.060;2024-03-22T00:28:45;10.00;99.90
2839;DHT22;1427;48.510;9.060;2024-03-22T00:31:13;9.80;99.90
2839;DHT22;1427;48.510;9.060;2024-03-22T00:33:39;9.60;99.90
2839;DHT22;1427;48.510;9.060;2024-03-22T00:36:07;9.70;99.90
2839;DHT22;1427;48.510;9.060;2024-03-22T00:38:33;9.30;99.90
2839;DHT22;1427;48.510;9.060;2024-03-22T00:41:00;9.30;99.90
2839;DHT22;1427;48.510;9.060;2024-03-22T00:43:28;9.30;99.90
2839;DHT22;1427;48.510;9.060;2024-03-22T00:45:55;9.40;99.90
2839;DHT22;1427;48.510;9.060;2024-03-22T00:48:21;9.40;99.90
2839;DHT22;1427;48.510;9.060;2024-03-22T00:50:48;9.30;99.90
2839;DHT22;1427;48.510;9.060;2024-03-22T00:53:14;9.30;99.90
2839;DHT22;1427;48.510;9.060;2024-03-22T00:55:42;9.30;99.90
2839;DHT22;1427;48.510;9.060;2024-03-22T00:58:08;9.30;99.90
2839;DHT22;1427;48.510;9.060;2024-03-22T01:00:36;9.20;99.90
2839;DHT22;1427;48.510;9.060;2024-03-22T01:03:04;9.10;99.90
2839;DHT22;1427;48.510;9.060;2024-03-22T01:05:31;9.00;99.90
2839;DHT22;1427;48.510;9.060;2024-03-22T01:07:57;9.10;99.90
2839;DHT22;1427;48.510;9.060;2024-03-22T01:10:24;8.90;99.90
2839;DHT22;1427;48.510;9.060;2024-03-22T01:12:50;8.80;99.90
2839;DHT22;1427;48.510;9.060;2024-03-22T01:15:17;8.70;99.90
2839;DHT22;1427;48.510;9.060;2024-03-22T01:17:45;8.70;99.90
2839;DHT22;1427;48.510;9.060;2024-03-22T01:20:15;8.70;99.90
2839;DHT22;1427;48.510;9.060;2024-03-22T01:22:41;8.70;99.90
2839;DHT22;1427;48.510;9.060;2024-03-22T01:25:08;8.70;99.90
2839;DHT22;1427;48.510;9.060;2024-03-22T01:27:35;8.80;99.90
2839;DHT22;1427;48.510;9.060;2024-03-22T01:30:02;8.80;99.90
2839;DHT22;1427;48.510;9.060;2024-03-22T01:32:29;8.60;99.90
2839;DHT22;1427;48.510;9.060;2024-03-22T01:34:58;8.60;99.90
2839;DHT22;1427;48.510;9.060;2024-03-22T01:37:24;8.60;99.90
2839;DHT22;1427;48.510;9.060;2024-03-22T01:39:51;8.50;99.90
2839;DHT22;1427;48.510;9.060;2024-03-22T01:42:17;8.50;99.90
2839;DHT22;1427;48.510;9.060;2024-03-22T01:44:44;8.60;99.90
2839;DHT22;1427;48.510;9.060;2024-03-22T01:47:11;8.50;99.90
2839;DHT22;1427;48.510;9.060;2024-03-22T01:49:38;8.50;99.90
2839;DHT22;1427;48.510;9.060;2024-03-22T01:52:06;8.50;99.90
2839;DHT22;1427;48.510;9.060;2024-03-22T01:54:34;8.50;99.90
2839;DHT22;1427;48.510;9.060;2024-03-22T01:57:00;8.60;99.90
2839;DHT22;1427;48.510;9.060;2024-03-22T01:59:28;8.40;99.90
2839;DHT22;1427;48.510;9.060;2024-03-22T02:01:54;8.40;99.90
2839;DHT22;1427;48.510;9.060;2024-03-22T02:04:21;8.40;99.90
2839;DHT22;1427;48.510;9.060;2024-03-22T02:06:47;8.40;99.90
2839;DHT22;1427;48.510;9.060;2024-03-22T02:09:16;8.40;99.90
2839;DHT22;1427;48.510;9.060;2024-03-22T02:11:43;8.30;99.90
2839;DHT22;1427;48.510;9.060;2024-03-22T02:14:10;8.30;99.90
2839;DHT22;1427;48.510;9.060;2024-03-22T02:16:36;8.30;99.90
2839;DHT22;1427;48.510;9.060;2024-03-22T02:19:06;8.30;99.90
2839;DHT22;1427;48.510;9.060;2024-03-22T02:21:38;8.20;99.90
2839;DHT22;1427;48.510;9.060;2024-03-22T02:24:07;8.20;99.90
2839;DHT22;1427;48.510;9.060;2024-03-22T02:26:33;8.10;99.90
2839;DHT22;1427;48.510;9.060;2024-03-22T02:29:00;8.20;99.90
2839;DHT22;1427;48.510;9.060;2024-03-22T02:31:26;8.20;99.90
2839;DHT22;1427;48.510;9.060;2024-03-22T02:33:53;8.10;99.90
2839;DHT22;1427;48.510;9.060;2024-03-22T02:36:19;8.00;99.90
2839;DHT22;1427;48.510;9.060;2024-03-22T02:38:46;8.00;99.90
2839;DHT22;1427;48.510;9.060;2024-03-22T02:41:14;7.90;99.90
2839;DHT22;1427;48.510;9.060;2024-03-22T02:43:41;7.80;99.90
2839;DHT22;1427;48.510;9.060;2024-03-22T02:46:07;7.80;99.90
2839;DHT22;1427;48.510;9.060;2024-03-22T02:48:34;7.90;99.90
2839;DHT22;1427;48.510;9.060;2024-03-22T02:51:00;7.90;99.90
2839;DHT22;1427;48.510;9.060;2024-03-22T02:53:28;7.80;99.90
2839;DHT22;1427;48.510;9.060;2024-03-22T02:55:54;7.70;99.90
2839;DHT22;1427;48.510;9.060;2024-03-22T02:58:22;7.60;99.90
2839;DHT22;1427;48.510;9.060;2024-03-22T03:00:48;7.60;99.90
2839;DHT22;1427;48.510;9.060;2024-03-22T03:03:15;7.50;99.90
2839;DHT22;1427;48.510;9.060;2024-03-22T03:05:42;7.50;99.90
2839;DHT22;1427;48.510;9.060;2024-03-22T03:08:09;7.50;99.90
2839;DHT22;1427;48.510;9.060;2024-03-22T03:10:36;7.50;99.90
2839;DHT22;1427;48.510;9.060;2024-03-22T03:13:03;7.60;99.90
2839;DHT22;1427;48.510;9.060;2024-03-22T03:15:30;7.60;99.90
2839;DHT22;1427;48.510;9.060;2024-03-22T03:17:57;7.70;99.90
2839;DHT22;1427;48.510;9.060;2024-03-22T03:20:24;7.60;99.90
2839;DHT22;1427;48.510;9.060;2024-03-22T03:22:52;7.50;99.90
2839;DHT22;1427;48.510;9.060;2024-03-22T03:25:18;7.30;99.90
2839;DHT22;1427;48.510;9.060;2024-03-22T03:27:45;7.40;99.90
2839;DHT22;1427;48.510;9.060;2024-03-22T03:30:11;7.40;99.90
2839;DHT22;1427;48.510;9.060;2024-03-22T03:32:39;7.40;99.90
2839;DHT22;1427;48.510;9.060;2024-03-22T03:35:06;7.40;99.90
2839;DHT22;1427;48.510;9.060;2024-03-22T03:37:33;7.40;99.90
2839;DHT22;1427;48.510;9.060;2024-03-22T03:39:59;7.40;99.90
2839;DHT22;1427;48.510;9.060;2024-03-22T03:42:26;7.30;99.90
2839;DHT22;1427;48.510;9.060;2024-03-22T03:44:52;7.40;99.90
2839;DHT22;1427;48.510;9.060;2024-03-22T03:47:19;7.20;99.90
2839;DHT22;1427;48.510;9.060;2024-03-22T03:49:47;7.10;99.90
2839;DHT22;1427;48.510;9.060;2024-03-22T03:52:14;7.20;99.90
2839;DHT22;1427;48.510;9.060;2024-03-22T03:54:40;7.20;99.90
2839;DHT22;1427;48.510;9.060;2024-03-22T03:57:07;7.30;99.90
2839;DHT22;1427;48.510;9.060;2024-03-22T03:59:33;7.30;99.90
2839;DHT22;1427;48.510;9.060;2024-03-22T04:02:00;7.30;99.90
2839;DHT22;1427;48.510;9.060;2024-03-22T04:04:27;7.30;99.90
2839;DHT22;1427;48.510;9.060;2024-03-22T04:06:55;7.40;99.90
2839;DHT22;1427;48.510;9.060;2024-03-22T04:09:21;7.30;99.90
2839;DHT22;1427;48.510;9.060;2024-03-22T04:11:48;7.40;99.90
2839;DHT22;1427;48.510;9.060;2024-03-22T04:14:14;7.30;99.90
2839;DHT22;1427;48.510;9.060;2024-03-22T04:16:41;7.30;99.90
2839;DHT22;1427;48.510;9.060;2024-03-22T04:19:07;7.20;99.90
2839;DHT22;1427;48.510;9.060;2024-03-22T04:21:34;7.20;99.90
2839;DHT22;1427;48.510;9.060;2024-03-22T04:24:05;7.30;99.90
2839;DHT22;1427;48.510;9.060;2024-03-22T04:26:32;7.20;99.90
2839;DHT22;1427;48.510;9.060;2024-03-22T04:28:58;7.20;99.90
2839;DHT22;1427;48.510;9.060;2024-03-22T04:31:25;7.30;99.90
2839;DHT22;1427;48.510;9.060;2024-03-22T04:33:51;7.20;99.90
2839;DHT22;1427;48.510;9.060;2024-03-22T04:36:18;7.20;99.90
2839;DHT22;1427;48.510;9.060;2024-03-22T04:38:44;7.30;99.90
2839;DHT22;1427;48.510;9.060;2024-03-22T04:41:13;7.40;99.90
2839;DHT22;1427;48.510;9.060;2024-03-22T04:43:40;7.50;99.90
2839;DHT22;1427;48.510;9.060;2024-03-22T04:46:07;7.20;99.90
2839;DHT22;1427;48.510;9.060;2024-03-22T04:48:33;7.20;99.90
2839;DHT22;1427;48.510;9.060;2024-03-22T04:51:03;7.20;99.90
2839;DHT22;1427;48.510;9.060;2024-03-22T04:53:29;7.20;99.90
2839;DHT22;1427;48.510;9.060;2024-03-22T04:55:56;7.50;99.90
2839;DHT22;1427;48.510;9.060;2024-03-22T04:58:24;7.30;99.90
2839;DHT22;1427;48.510;9.060;2024-03-22T05:00:56;7.40;99.90
2839;DHT22;1427;48.510;9.060;2024-03-22T05:03:23;7.30;99.90
2839;DHT22;1427;48.510;9.060;2024-03-22T05:05:50;7.30;99.90
2839;DHT22;1427;48.510;9.060;2024-03-22T05:08:16;7.30;99.90
2839;DHT22;1427;48.510;9.060;2024-03-22T05:10:43;7.40;99.90
2839;DHT22;1427;48.510;9.060;2024-03-22T05:13:10;7.40;99.90
2839;DHT22;1427;48.510;9.060;2024-03-22T05:15:38;7.40;99.90
2839;DHT22;1427;48.510;9.060;2024-03-22T05:18:04;7.40;99.90
2839;DHT22;1427;48.510;9.060;2024-03-22T05:20:31;7.40;99.90
2839;DHT22;1427;48.510;9.060;2024-03-22T05:22:59;7.30;99.90
2839;DHT22;1427;48.510;9.060;2024-03-22T05:25:26;7.30;99.90
2839;DHT22;1427;48.510;9.060;2024-03-22T05:27:52;7.40;99.90
2839;DHT22;1427;48.510;9.060;2024-03-22T05:30:19;7.40;99.90
2839;DHT22;1427;48.510;9.060;2024-03-22T05:32:46;7.40;99.90
2839;DHT22;1427;48.510;9.060;2024-03-22T05:35:15;7.50;99.90
2839;DHT22;1427;48.510;9.060;2024-03-22T05:37:41;7.40;99.90
2839;DHT22;1427;48.510;9.060;2024-03-22T05:40:09;7.40;99.90
2839;DHT22;1427;48.510;9.060;2024-03-22T05:42:36;7.30;99.90
2839;DHT22;1427;48.510;9.060;2024-03-22T05:45:04;7.20;99.90
2839;DHT22;1427;48.510;9.060;2024-03-22T05:47:30;7.20;99.90
2839;DHT22;1427;48.510;9.060;2024-03-22T05:49:59;7.20;99.90
2839;DHT22;1427;48.510;9.060;2024-03-22T05:52:25;7.30;99.90
2839;DHT22;1427;48.510;9.060;2024-03-22T05:54:52;7.30;99.90
2839;DHT22;1427;48.510;9.060;2024-03-22T05:57:18;7.40;99.90
2839;DHT22;1427;48.510;9.060;2024-03-22T05:59:45;7.50;99.90
2839;DHT22;1427;48.510;9.060;2024-03-22T06:02:11;7.40;99.90
2839;DHT22;1427;48.510;9.060;2024-03-22T06:04:39;7.40;99.90
2839;DHT22;1427;48.510;9.060;2024-03-22T06:07:06;7.40;99.90
2839;DHT22;1427;48.510;9.060;2024-03-22T06:09:33;7.50;99.90
2839;DHT22;1427;48.510;9.060;2024-03-22T06:12:04;7.80;99.90
2839;DHT22;1427;48.510;9.060;2024-03-22T06:14:31;8.10;99.90
2839;DHT22;1427;48.510;9.060;2024-03-22T06:16:57;8.40;99.90
2839;DHT22;1427;48.510;9.060;2024-03-22T06:19:24;8.80;99.90
2839;DHT22;1427;48.510;9.060;2024-03-22T06:21:50;8.90;99.90
2839;DHT22;1427;48.510;9.060;2024-03-22T06:24:19;9.10;99.90
2839;DHT22;1427;48.510;9.060;2024-03-22T06:26:45;9.40;99.90
2839;DHT22;1427;48.510;9.060;2024-03-22T06:29:12;9.40;99.90
2839;DHT22;1427;48.510;9.060;2024-03-22T06:31:38;9.70;99.90
2839;DHT22;1427;48.510;9.060;2024-03-22T06:34:05;10.00;99.90
2839;DHT22;1427;48.510;9.060;2024-03-22T06:36:32;10.30;99.90
2839;DHT22;1427;48.510;9.060;2024-03-22T06:38:59;10.80;99.90
2839;DHT22;1427;48.510;9.060;2024-03-22T06:41:28;10.60;99.90
2839;DHT22;1427;48.510;9.060;2024-03-22T06:43:55;10.90;99.90
2839;DHT22;1427;48.510;9.060;2024-03-22T06:46:21;11.40;99.90
2839;DHT22;1427;48.510;9.060;2024-03-22T06:48:48;11.70;99.90
2839;DHT22;1427;48.510;9.060;2024-03-22T06:51:14;12.10;99.90
2839;DHT22;1427;48.510;9.060;2024-03-22T06:53:42;12.20;99.90
2839;DHT22;1427;48.510;9.060;2024-03-22T06:56:08;12.40;99.90
2839;DHT22;1427;48.510;9.060;2024-03-22T06:58:38;12.50;99.90
2839;DHT22;1427;48.510;9.060;2024-03-22T07:01:05;12.30;99.90
2839;DHT22;1427;48.510;9.060;2024-03-22T07:03:32;12.50;99.90
2839;DHT22;1427;48.510;9.060;2024-03-22T07:05:59;12.20;99.90
2839;DHT22;1427;48.510;9.060;2024-03-22T07:08:26;12.10;99.90
2839;DHT22;1427;48.510;9.060;2024-03-22T07:10:54;12.10;99.90
2839;DHT22;1427;48.510;9.060;2024-03-22T07:13:20;11.70;99.90
2839;DHT22;1427;48.510;9.060;2024-03-22T07:15:48;11.50;99.90
2839;DHT22;1427;48.510;9.060;2024-03-22T07:18:15;11.60;99.90
2839;DHT22;1427;48.510;9.060;2024-03-22T07:20:42;11.60;99.90
2839;DHT22;1427;48.510;9.060;2024-03-22T07:23:08;11.40;99.90
2839;DHT22;1427;48.510;9.060;2024-03-22T07:25:35;11.50;99.90
2839;DHT22;1427;48.510;9.060;2024-03-22T07:28:01;11.50;99.90
2839;DHT22;1427;48.510;9.060;2024-03-22T07:30:28;11.50;99.90
2839;DHT22;1427;48.510;9.060;2024-03-22T07:32:56;11.60;99.90
2839;DHT22;1427;48.510;9.060;2024-03-22T07:35:24;11.90;99.90
2839;DHT22;1427;48.510;9.060;2024-03-22T07:37:50;11.90;99.90
2839;DHT22;1427;48.510;9.060;2024-03-22T07:40:17;12.00;99.90
2839;DHT22;1427;48.510;9.060;2024-03-22T07:42:43;12.30;99.90
2839;DHT22;1427;48.510;9.060;2024-03-22T07:45:12;12.30;99.90
2839;DHT22;1427;48.510;9.060;2024-03-22T07:47:41;12.60;99.90
2839;DHT22;1427;48.510;9.060;2024-03-22T07:50:11;12.60;99.90
2839;DHT22;1427;48.510;9.060;2024-03-22T07:52:37;12.70;99.90
2839;DHT22;1427;48.510;9.060;2024-03-22T07:55:04;13.00;99.90
2839;DHT22;1427;48.510;9.060;2024-03-22T07:57:30;13.30;99.90
2839;DHT22;1427;48.510;9.060;2024-03-22T07:59:57;13.40;99.90
2839;DHT22;1427;48.510;9.060;2024-03-22T08:02:24;13.70;99.90
2839;DHT22;1427;48.510;9.060;2024-03-22T08:04:51;14.00;99.90
2839;DHT22;1427;48.510;9.060;2024-03-22T08:07:19;14.50;99.90
2839;DHT22;1427;48.510;9.060;2024-03-22T08:09:46;14.40;99.90
2839;DHT22;1427;48.510;9.060;2024-03-22T08:12:13;14.30;99.90
2839;DHT22;1427;48.510;9.060;2024-03-22T08:14:40;14.30;99.90
2839;DHT22;1427;48.510;9.060;2024-03-22T08:17:07;14.50;99.90
2839;DHT22;1427;48.510;9.060;2024-03-22T08:19:35;14.90;99.90
2839;DHT22;1427;48.510;9.060;2024-03-22T08:22:01;15.00;99.90
2839;DHT22;1427;48.510;9.060;2024-03-22T08:24:30;15.00;99.90
2839;DHT22;1427;48.510;9.060;2024-03-22T08:26:56;15.10;99.90
2839;DHT22;1427;48.510;9.060;2024-03-22T08:29:24;15.60;99.90
2839;DHT22;1427;48.510;9.060;2024-03-22T08:31:50;15.90;99.90
2839;DHT22;1427;48.510;9.060;2024-03-22T08:34:17;16.10;99.90
2839;DHT22;1427;48.510;9.060;2024-03-22T08:36:43;16.00;99.90
2839;DHT22;1427;48.510;9.060;2024-03-22T08:39:10;15.70;99.90
2839;DHT22;1427;48.510;9.060;2024-03-22T08:41:37;15.60;99.90
2839;DHT22;1427;48.510;9.060;2024-03-22T08:44:05;15.90;99.90
2839;DHT22;1427;48.510;9.060;2024-03-22T08:46:31;15.90;99.90
2839;DHT22;1427;48.510;9.060;2024-03-22T08:48:58;16.10;99.90
2839;DHT22;1427;48.510;9.060;2024-03-22T08:51:24;16.30;99.90
2839;DHT22;1427;48.510;9.060;2024-03-22T08:53:51;16.60;99.90
2839;DHT22;1427;48.510;9.060;2024-03-22T08:56:18;17.10;99.90
2839;DHT22;1427;48.510;9.060;2024-03-22T08:58:46;17.00;99.90
2839;DHT22;1427;48.510;9.060;2024-03-22T09:01:13;17.10;99.90
2839;DHT22;1427;48.510;9.060;2024-03-22T09:03:40;17.30;99.90
2839;DHT22;1427;48.510;9.060;2024-03-22T09:06:06;17.40;99.90
2839;DHT22;1427;48.510;9.060;2024-03-22T09:08:33;17.50;99.90
2839;DHT22;1427;48.510;9.060;2024-03-22T09:11:00;17.50;99.90
2839;DHT22;1427;48.510;9.060;2024-03-22T09:13:27;17.70;99.90
2839;DHT22;1427;48.510;9.060;2024-03-22T09:15:58;17.80;99.90
2839;DHT22;1427;48.510;9.060;2024-03-22T09:18:25;18.10;99.90
2839;DHT22;1427;48.510;9.060;2024-03-22T09:20:52;18.10;99.90
2839;DHT22;1427;48.510;9.060;2024-03-22T09:23:19;17.90;99.90
2839;DHT22;1427;48.510;9.060;2024-03-22T09:25:46;17.80;99.90
2839;DHT22;1427;48.510;9.060;2024-03-22T09:28:13;18.20;99.90
2839;DHT22;1427;48.510;9.060;2024-03-22T09:30:39;18.70;99.90
2839;DHT22;1427;48.510;9.060;2024-03-22T09:33:08;18.60;99.90
2839;DHT22;1427;48.510;9.060;2024-03-22T09:35:35;18.40;99.90
2839;DHT22;1427;48.510;9.060;2024-03-22T09:38:02;18.60;99.90
2839;DHT22;1427;48.510;9.060;2024-03-22T09:40:28;19.10;99.90
2839;DHT22;1427;48.510;9.060;2024-03-22T09:43:01;19.40;99.60
2839;DHT22;1427;48.510;9.060;2024-03-22T09:45:28;19.40;99.50
2839;DHT22;1427;48.510;9.060;2024-03-22T09:47:57;19.70;99.70
2839;DHT22;1427;48.510;9.060;2024-03-22T09:50:25;19.90;99.50
2839;DHT22;1427;48.510;9.060;2024-03-22T09:52:53;19.60;98.70
2839;DHT22;1427;48.510;9.060;2024-03-22T09:55:22;19.20;99.00
2839;DHT22;1427;48.510;9.060;2024-03-22T09:57:50;19.30;98.50
2839;DHT22;1427;48.510;9.060;2024-03-22T10:00:18;19.10;98.60
2839;DHT22;1427;48.510;9.060;2024-03-22T10:02:46;18.90;97.00
2839;DHT22;1427;48.510;9.060;2024-03-22T10:05:13;18.90;97.40
2839;DHT22;1427;48.510;9.060;2024-03-22T10:07:43;18.80;96.80
2839;DHT22;1427;48.510;9.060;2024-03-22T10:10:09;18.10;97.50
2839;DHT22;1427;48.510;9.060;2024-03-22T10:12:38;18.30;98.30
2839;DHT22;1427;48.510;9.060;2024-03-22T10:15:05;18.60;97.20
2839;DHT22;1427;48.510;9.060;2024-03-22T10:17:34;18.70;97.60
2839;DHT22;1427;48.510;9.060;2024-03-22T10:20:01;19.00;97.50
2839;DHT22;1427;48.510;9.060;2024-03-22T10:22:28;19.20;96.90
2839;DHT22;1427;48.510;9.060;2024-03-22T10:24:55;19.30;96.70
2839;DHT22;1427;48.510;9.060;2024-03-22T10:27:27;19.40;97.00
2839;DHT22;1427;48.510;9.060;2024-03-22T10:29:53;19.40;96.60
2839;DHT22;1427;48.510;9.060;2024-03-22T10:32:20;19.10;97.10
2839;DHT22;1427;48.510;9.060;2024-03-22T10:34:47;19.40;97.30
2839;DHT22;1427;48.510;9.060;2024-03-22T10:37:16;19.70;96.80
2839;DHT22;1427;48.510;9.060;2024-03-22T10:39:43;19.80;96.70
2839;DHT22;1427;48.510;9.060;2024-03-22T10:42:12;19.90;96.30
2839;DHT22;1427;48.510;9.060;2024-03-22T10:44:38;20.20;96.40
2839;DHT22;1427;48.510;9.060;2024-03-22T10:47:07;20.60;96.00
2839;DHT22;1427;48.510;9.060;2024-03-22T10:49:37;20.70;96.10
2839;DHT22;1427;48.510;9.060;2024-03-22T10:52:07;21.10;95.60
2839;DHT22;1427;48.510;9.060;2024-03-22T10:54:37;21.20;95.20
2839;DHT22;1427;48.510;9.060;2024-03-22T10:57:05;21.80;95.20
2839;DHT22;1427;48.510;9.060;2024-03-22T10:59:35;22.00;93.50
2839;DHT22;1427;48.510;9.060;2024-03-22T11:02:03;22.00;93.00
2839;DHT22;1427;48.510;9.060;2024-03-22T11:04:33;21.90;92.00
2839;DHT22;1427;48.510;9.060;2024-03-22T11:06:59;21.70;92.20
2839;DHT22;1427;48.510;9.060;2024-03-22T11:09:29;21.00;91.90
2839;DHT22;1427;48.510;9.060;2024-03-22T11:11:56;21.00;91.70
2839;DHT22;1427;48.510;9.060;2024-03-22T11:14:24;21.10;92.10
2839;DHT22;1427;48.510;9.060;2024-03-22T11:16:52;21.10;92.00
2839;DHT22;1427;48.510;9.060;2024-03-22T11:19:19;21.50;92.90
2839;DHT22;1427;48.510;9.060;2024-03-22T11:21:45;22.00;91.80
2839;DHT22;1427;48.510;9.060;2024-03-22T11:24:12;22.10;90.40
2839;DHT22;1427;48.510;9.060;2024-03-22T11:26:39;21.90;90.50
2839;DHT22;1427;48.510;9.060;2024-03-22T11:29:06;22.20;90.60
2839;DHT22;1427;48.510;9.060;2024-03-22T11:31:32;22.40;90.00
2839;DHT22;1427;48.510;9.060;2024-03-22T11:34:01;22.10;88.90
2839;DHT22;1427;48.510;9.060;2024-03-22T11:36:28;22.50;87.30
2839;DHT22;1427;48.510;9.060;2024-03-22T11:38:56;22.90;85.30
2839;DHT22;1427;48.510;9.060;2024-03-22T11:41:28;22.90;87.40
2839;DHT22;1427;48.510;9.060;2024-03-22T11:43:57;22.90;85.80
2839;DHT22;1427;48.510;9.060;2024-03-22T11:46:25;23.10;85.10
2839;DHT22;1427;48.510;9.060;2024-03-22T11:48:53;23.00;85.40
2839;DHT22;1427;48.510;9.060;2024-03-22T11:51:21;23.30;85.40
2839;DHT22;1427;48.510;9.060;2024-03-22T11:53:51;23.30;83.70
2839;DHT22;1427;48.510;9.060;2024-03-22T11:56:18;23.30;85.40
2839;DHT22;1427;48.510;9.060;2024-03-22T11:58:46;23.10;83.30
2839;DHT22;1427;48.510;9.060;2024-03-22T12:01:14;23.00;83.90
2839;DHT22;1427;48.510;9.060;2024-03-22T12:03:43;23.20;83.50
2839;DHT22;1427;48.510;9.060;2024-03-22T12:06:10;22.90;82.20
2839;DHT22;1427;48.510;9.060;2024-03-22T12:08:39;22.60;82.50
2839;DHT22;1427;48.510;9.060;2024-03-22T12:11:07;22.70;83.40
2839;DHT22;1427;48.510;9.060;2024-03-22T12:13:35;22.90;83.20
2839;DHT22;1427;48.510;9.060;2024-03-22T12:16:03;23.10;82.90
2839;DHT22;1427;48.510;9.060;2024-03-22T12:18:30;22.40;82.80
2839;DHT22;1427;48.510;9.060;2024-03-22T12:20:56;22.10;82.20
2839;DHT22;1427;48.510;9.060;2024-03-22T12:23:24;22.10;81.90
2839;DHT22;1427;48.510;9.060;2024-03-22T12:25:53;22.00;81.70
2839;DHT22;1427;48.510;9.060;2024-03-22T12:28:21;22.00;83.00
2839;DHT22;1427;48.510;9.060;2024-03-22T12:30:47;21.60;80.70
2839;DHT22;1427;48.510;9.060;2024-03-22T12:33:15;21.30;81.80
2839;DHT22;1427;48.510;9.060;2024-03-22T12:35:41;21.20;81.60
2839;DHT22;1427;48.510;9.060;2024-03-22T12:38:09;21.40;81.30
2839;DHT22;1427;48.510;9.060;2024-03-22T12:40:36;21.50;80.30
2839;DHT22;1427;48.510;9.060;2024-03-22T12:43:05;21.50;81.20
2839;DHT22;1427;48.510;9.060;2024-03-22T12:45:31;21.90;81.70
2839;DHT22;1427;48.510;9.060;2024-03-22T12:47:59;22.10;81.20
2839;DHT22;1427;48.510;9.060;2024-03-22T12:50:26;22.40;79.40
2839;DHT22;1427;48.510;9.060;2024-03-22T12:52:53;22.50;78.50
2839;DHT22;1427;48.510;9.060;2024-03-22T12:55:19;22.50;77.90
2839;DHT22;1427;48.510;9.060;2024-03-22T12:57:46;22.00;78.10
2839;DHT22;1427;48.510;9.060;2024-03-22T13:00:14;22.00;79.50
2839;DHT22;1427;48.510;9.060;2024-03-22T13:02:44;22.10;78.60
2839;DHT22;1427;48.510;9.060;2024-03-22T13:05:10;22.20;78.20
2839;DHT22;1427;48.510;9.060;2024-03-22T13:07:37;22.00;77.80
2839;DHT22;1427;48.510;9.060;2024-03-22T13:10:04;21.80;76.40
2839;DHT22;1427;48.510;9.060;2024-03-22T13:12:31;21.40;74.60
2839;DHT22;1427;48.510;9.060;2024-03-22T13:14:59;21.20;76.70
2839;DHT22;1427;48.510;9.060;2024-03-22T13:17:28;21.50;77.00
2839;DHT22;1427;48.510;9.060;2024-03-22T13:19:54;21.60;76.80
2839;DHT22;1427;48.510;9.060;2024-03-22T13:22:21;21.40;77.00
2839;DHT22;1427;48.510;9.060;2024-03-22T13:24:48;21.40;79.30
2839;DHT22;1427;48.510;9.060;2024-03-22T13:27:16;21.60;77.50
2839;DHT22;1427;48.510;9.060;2024-03-22T13:29:42;21.40;76.10
2839;DHT22;1427;48.510;9.060;2024-03-22T13:32:09;21.40;75.00
2839;DHT22;1427;48.510;9.060;2024-03-22T13:34:37;21.20;77.70
2839;DHT22;1427;48.510;9.060;2024-03-22T13:37:05;21.20;77.70
2839;DHT22;1427;48.510;9.060;2024-03-22T13:39:32;21.30;78.30
2839;DHT22;1427;48.510;9.060;2024-03-22T13:41:59;21.60;78.60
2839;DHT22;1427;48.510;9.060;2024-03-22T13:44:25;21.50;77.90
2839;DHT22;1427;48.510;9.060;2024-03-22T13:46:52;21.00;77.80
2839;DHT22;1427;48.510;9.060;2024-03-22T13:49:19;20.90;78.80
2839;DHT22;1427;48.510;9.060;2024-03-22T13:51:48;21.20;76.90
2839;DHT22;1427;48.510;9.060;2024-03-22T13:54:15;21.30;76.20
2839;DHT22;1427;48.510;9.060;2024-03-22T13:56:42;21.60;76.30
2839;DHT22;1427;48.510;9.060;2024-03-22T13:59:09;21.80;74.10
2839;DHT22;1427;48.510;9.060;2024-03-22T14:01:37;22.00;75.50
2839;DHT22;1427;48.510;9.060;2024-03-22T14:04:03;21.80;75.40
2839;DHT22;1427;48.510;9.060;2024-03-22T14:06:31;21.40;74.10
2839;DHT22;1427;48.510;9.060;2024-03-22T14:08:59;21.10;75.20
2839;DHT22;1427;48.510;9.060;2024-03-22T14:11:27;21.00;74.10
2839;DHT22;1427;48.510;9.060;2024-03-22T14:13:53;21.10;74.90
2839;DHT22;1427;48.510;9.060;2024-03-22T14:16:20;21.20;73.90
2839;DHT22;1427;48.510;9.060;2024-03-22T14:18:46;21.30;73.60
2839;DHT22;1427;48.510;9.060;2024-03-22T14:21:15;21.30;74.70
2839;DHT22;1427;48.510;9.060;2024-03-22T14:23:45;21.50;73.30
2839;DHT22;1427;48.510;9.060;2024-03-22T14:26:15;21.80;72.80
2839;DHT22;1427;48.510;9.060;2024-03-22T14:28:41;21.60;72.30
2839;DHT22;1427;48.510;9.060;2024-03-22T14:31:09;21.80;70.60
2839;DHT22;1427;48.510;9.060;2024-03-22T14:33:36;21.80;69.40
2839;DHT22;1427;48.510;9.060;2024-03-22T14:36:03;21.80;68.00
2839;DHT22;1427;48.510;9.060;2024-03-22T14:38:30;21.80;70.10
2839;DHT22;1427;48.510;9.060;2024-03-22T14:40:58;21.70;68.40
2839;DHT22;1427;48.510;9.060;2024-03-22T14:43:26;21.50;68.70
2839;DHT22;1427;48.510;9.060;2024-03-22T14:45:54;21.40;69.10
2839;DHT22;1427;48.510;9.060;2024-03-22T14:48:20;21.50;68.20
2839;DHT22;1427;48.510;9.060;2024-03-22T14:50:48;21.60;68.10
2839;DHT22;1427;48.510;9.060;2024-03-22T14:53:14;21.70;67.00
2839;DHT22;1427;48.510;9.060;2024-03-22T14:55:51;21.70;67.90
2839;DHT22;1427;48.510;9.060;2024-03-22T14:58:17;21.70;66.40
2839;DHT22;1427;48.510;9.060;2024-03-22T15:00:52;21.60;66.40
2839;DHT22;1427;48.510;9.060;2024-03-22T15:03:18;21.60;66.70
2839;DHT22;1427;48.510;9.060;2024-03-22T15:05:45;21.10;67.50
2839;DHT22;1427;48.510;9.060;2024-03-22T15:08:12;20.90;68.70
2839;DHT22;1427;48.510;9.060;2024-03-22T15:10:39;20.60;69.00
2839;DHT22;1427;48.510;9.060;2024-03-22T15:13:05;20.40;69.80
2839;DHT22;1427;48.510;9.060;2024-03-22T15:15:33;20.30;70.30
2839;DHT22;1427;48.510;9.060;2024-03-22T15:18:00;20.20;70.70
2839;DHT22;1427;48.510;9.060;2024-03-22T15:20:27;20.20;71.10
2839;DHT22;1427;48.510;9.060;2024-03-22T15:22:53;20.10;71.10
2839;DHT22;1427;48.510;9.060;2024-03-22T15:25:20;20.00;71.00
2839;DHT22;1427;48.510;9.060;2024-03-22T15:27:46;20.00;70.30
2839;DHT22;1427;48.510;9.060;2024-03-22T15:30:14;20.00;70.70
2839;DHT22;1427;48.510;9.060;2024-03-22T15:32:40;20.00;71.30
2839;DHT22;1427;48.510;9.060;2024-03-22T15:35:09;20.00;72.20
2839;DHT22;1427;48.510;9.060;2024-03-22T15:37:37;20.00;71.90
2839;DHT22;1427;48.510;9.060;2024-03-22T15:40:05;19.90;72.20
2839;DHT22;1427;48.510;9.060;2024-03-22T15:42:32;19.90;72.50
2839;DHT22;1427;48.510;9.060;2024-03-22T15:44:59;19.80;73.10
2839;DHT22;1427;48.510;9.060;2024-03-22T15:47:29;19.70;73.50
2839;DHT22;1427;48.510;9.060;2024-03-22T15:49:56;19.70;70.70
2839;DHT22;1427;48.510;9.060;2024-03-22T15:52:23;19.70;71.50
2839;DHT22;1427;48.510;9.060;2024-03-22T15:54:51;19.70;70.30
2839;DHT22;1427;48.510;9.060;2024-03-22T15:57:19;19.60;69.00
2839;DHT22;1427;48.510;9.060;2024-03-22T15:59:46;19.60;68.90
2839;DHT22;1427;48.510;9.060;2024-03-22T16:02:12;19.70;69.40
2839;DHT22;1427;48.510;9.060;2024-03-22T16:04:40;19.60;70.70
2839;DHT22;1427;48.510;9.060;2024-03-22T16:07:06;19.50;72.10